Time;durP1;ratioP1;P1;durP2;ratioP2;P2;SDS_P1;SDS_P2;PMS_P1;PMS_P2;Temp;Humidity;BMP_temperature;BMP_pressure;BME280_temperature;BME280_humidity;BME280_pressure;Samples;Min_cycle;Max_cycle;Signal;HPM_P1;HPM_P2
2021/06/23 00:00:32;;;;;;;1.05;0.95;;;28.30;49.70;;;;;;5060642;28;20443;-58
2021/06/23 00:02:58;;;;;;;1.15;0.90;;;28.30;49.70;;;;;;5053360;28;20039;-53
2021/06/23 00:05:24;;;;;;;0.80;0.70;;;28.30;49.70;;;;;;5059637;28;20028;-58
2021/06/23 00:07:51;;;;;;;1.35;0.80;;;28.30;49.70;;;;;;5066067;28;20420;-53
2021/06/23 00:10:17;;;;;;;0.80;0.80;;;28.30;49.70;;;;;;5067658;28;20455;-59
2021/06/23 00:12:44;;;;;;;0.85;0.80;;;28.30;49.70;;;;;;5052760;28;20025;-57
2021/06/23 00:15:13;;;;;;;1.00;0.80;;;28.20;49.70;;;;;;5056381;28;20021;-51
2021/06/23 00:17:38;;;;;;;0.70;0.70;;;28.20;49.70;;;;;;5047999;28;20025;-57
2021/06/23 00:20:06;;;;;;;1.73;0.80;;;28.20;49.70;;;;;;5062964;28;20033;-57
2021/06/23 00:22:31;;;;;;;0.77;0.70;;;28.20;49.70;;;;;;5050258;28;20029;-61
2021/06/23 00:24:57;;;;;;;1.20;0.70;;;28.20;49.70;;;;;;5050257;28;20104;-52
2021/06/23 00:27:23;;;;;;;0.80;0.80;;;28.20;49.70;;;;;;5049733;28;20040;-58
2021/06/23 00:29:48;;;;;;;1.23;0.90;;;28.20;49.80;;;;;;5055903;28;20032;-58
2021/06/23 00:32:15;;;;;;;0.80;0.70;;;28.20;49.80;;;;;;5048907;28;20037;-55
2021/06/23 00:34:41;;;;;;;0.77;0.75;;;28.20;49.80;;;;;;5047734;28;20108;-58
2021/06/23 00:37:07;;;;;;;1.20;0.90;;;28.20;49.80;;;;;;5048267;28;20029;-55
2021/06/23 00:39:33;;;;;;;0.77;0.70;;;28.20;49.80;;;;;;5053700;28;20033;-58
2021/06/23 00:41:59;;;;;;;1.10;0.80;;;28.20;49.80;;;;;;5052441;28;20037;-59
2021/06/23 00:44:25;;;;;;;1.08;0.80;;;28.20;49.80;;;;;;5052821;28;20039;-58
2021/06/23 00:46:51;;;;;;;0.80;0.80;;;28.20;49.80;;;;;;5062139;28;20037;-55
2021/06/23 00:49:17;;;;;;;1.23;0.80;;;28.20;49.80;;;;;;5053043;28;20036;-58
2021/06/23 00:51:43;;;;;;;0.73;0.70;;;28.10;49.80;;;;;;5055008;28;20052;-59
2021/06/23 00:54:13;;;;;;;1.40;0.80;;;28.10;49.80;;;;;;5051298;28;20130;-57
2021/06/23 00:56:40;;;;;;;0.85;0.75;;;28.10;49.80;;;;;;5063243;28;20076;-53
2021/06/23 00:59:08;;;;;;;1.10;0.80;;;28.10;50.30;;;;;;5064091;28;20037;-58
2021/06/23 01:01:37;;;;;;;0.80;0.80;;;28.10;49.80;;;;;;5055679;28;20039;-52
2021/06/23 01:04:03;;;;;;;1.00;0.80;;;28.10;49.90;;;;;;5060704;28;20043;-55
2021/06/23 01:06:30;;;;;;;0.70;0.70;;;28.10;49.80;;;;;;5054287;28;20467;-58
2021/06/23 01:08:56;;;;;;;1.10;0.73;;;28.10;49.80;;;;;;5068692;28;20104;-58
2021/06/23 01:11:23;;;;;;;0.85;0.80;;;28.10;49.80;;;;;;5062427;28;20340;-59
2021/06/23 01:14:04;;;;;;;0.98;0.90;;;28.10;49.90;;;;;;5047287;28;20116;-55
2021/06/23 01:16:33;;;;;;;0.75;0.75;;;28.10;49.90;;;;;;5060109;28;20083;-56
2021/06/23 01:19:00;;;;;;;0.80;0.80;;;28.10;49.90;;;;;;5071071;28;20040;-55
2021/06/23 01:21:28;;;;;;;0.77;0.77;;;28.10;49.90;;;;;;5066833;28;20044;-56
2021/06/23 01:23:54;;;;;;;0.73;0.70;;;28.10;49.90;;;;;;5057963;28;20422;-58
2021/06/23 01:26:20;;;;;;;0.80;0.80;;;28.10;49.90;;;;;;5047956;28;20114;-54
2021/06/23 01:28:46;;;;;;;1.08;0.85;;;28.10;49.90;;;;;;5046999;28;20410;-55
2021/06/23 01:31:15;;;;;;;0.70;0.70;;;28.10;49.90;;;;;;5055179;28;20119;-56
2021/06/23 01:33:40;;;;;;;0.87;0.73;;;28.10;50.00;;;;;;5056944;28;20072;-59
2021/06/23 01:36:06;;;;;;;1.15;0.80;;;28.10;49.90;;;;;;5057828;28;20307;-59
2021/06/23 01:38:32;;;;;;;0.88;0.77;;;28.00;49.90;;;;;;5046168;28;20051;-57
2021/06/23 01:40:58;;;;;;;0.93;0.80;;;28.10;49.90;;;;;;5050336;28;20036;-53
2021/06/23 01:43:23;;;;;;;0.95;0.80;;;28.10;50.00;;;;;;5053299;28;20376;-57
2021/06/23 01:45:50;;;;;;;0.70;0.70;;;28.00;49.90;;;;;;5049562;28;20025;-56
2021/06/23 01:48:18;;;;;;;0.85;0.80;;;28.00;49.90;;;;;;5046437;28;20432;-54
2021/06/23 01:50:52;;;;;;;0.93;0.80;;;28.00;49.90;;;;;;5077476;28;20432;-55
2021/06/23 01:53:17;;;;;;;0.70;0.70;;;28.10;50.00;;;;;;5052415;28;20051;-55
2021/06/23 01:55:43;;;;;;;0.70;0.70;;;28.10;50.00;;;;;;5051168;28;20379;-58
2021/06/23 01:58:11;;;;;;;0.75;0.73;;;28.00;50.40;;;;;;5054861;28;20032;-54
2021/06/23 02:00:40;;;;;;;0.80;0.80;;;28.00;49.90;;;;;;5049679;28;20073;-58
2021/06/23 02:03:18;;;;;;;0.63;0.60;;;28.00;49.90;;;;;;5045332;28;20025;-56
2021/06/23 02:06:06;;;;;;;0.90;0.80;;;28.00;49.90;;;;;;5054076;28;20032;-54
2021/06/23 02:08:47;;;;;;;1.00;0.77;;;28.00;50.00;;;;;;5051625;28;20013;-55
2021/06/23 02:11:34;;;;;;;0.77;0.77;;;28.00;50.00;;;;;;5050724;28;20032;-57
2021/06/23 02:14:29;;;;;;;0.88;0.80;;;28.00;50.00;;;;;;5055675;28;20187;-57
2021/06/23 02:16:56;;;;;;;0.70;0.70;;;28.00;50.00;;;;;;5051163;28;20310;-58
2021/06/23 02:19:22;;;;;;;1.00;0.90;;;28.00;50.00;;;;;;5053195;28;20028;-54
2021/06/23 02:21:48;;;;;;;0.95;0.85;;;28.00;50.00;;;;;;5046722;28;20078;-55
2021/06/23 02:24:14;;;;;;;0.70;0.70;;;28.00;50.10;;;;;;5061824;28;20345;-60
2021/06/23 02:26:40;;;;;;;0.80;0.70;;;28.00;50.00;;;;;;5046023;28;20199;-57
2021/06/23 02:29:07;;;;;;;0.98;0.80;;;27.90;49.90;;;;;;5061740;28;20309;-58
2021/06/23 02:31:36;;;;;;;0.80;0.80;;;28.00;50.00;;;;;;5052526;28;20140;-56
2021/06/23 02:34:06;;;;;;;1.02;0.82;;;28.00;50.00;;;;;;5046187;28;20028;-55
2021/06/23 02:36:32;;;;;;;0.88;0.70;;;27.90;50.00;;;;;;5049331;28;20092;-55
2021/06/23 02:38:58;;;;;;;0.80;0.80;;;27.90;50.00;;;;;;5051910;28;20470;-59
2021/06/23 02:41:24;;;;;;;0.70;0.70;;;27.90;50.00;;;;;;5049487;28;20025;-52
2021/06/23 02:43:50;;;;;;;0.80;0.70;;;27.90;50.00;;;;;;5048968;28;20103;-56
2021/06/23 02:46:16;;;;;;;0.80;0.80;;;27.90;50.00;;;;;;5063197;28;20116;-57
2021/06/23 02:48:42;;;;;;;0.70;0.70;;;27.90;50.00;;;;;;5057299;28;20216;-56
2021/06/23 02:51:19;;;;;;;1.05;0.80;;;27.90;50.00;;;;;;5062761;28;20025;-57
2021/06/23 02:53:46;;;;;;;1.35;0.70;;;27.90;50.10;;;;;;5057963;28;20082;-55
2021/06/23 02:56:13;;;;;;;0.70;0.70;;;27.90;50.00;;;;;;5058052;28;20016;-53
2021/06/23 02:58:41;;;;;;;0.70;0.70;;;27.90;50.00;;;;;;5052214;28;20302;-55
2021/06/23 03:01:08;;;;;;;1.55;0.70;;;27.90;50.00;;;;;;5055284;28;20044;-56
2021/06/23 03:03:34;;;;;;;0.70;0.70;;;27.90;50.00;;;;;;5046602;28;20415;-56
2021/06/23 03:06:03;;;;;;;0.82;0.80;;;27.90;50.00;;;;;;5043408;28;20049;-55
2021/06/23 03:08:29;;;;;;;0.70;0.70;;;27.90;50.60;;;;;;5065253;28;20407;-57
2021/06/23 03:10:55;;;;;;;0.60;0.60;;;27.90;50.00;;;;;;5050566;28;20199;-58
2021/06/23 03:13:21;;;;;;;0.70;0.70;;;27.90;50.10;;;;;;5049873;28;20045;-60
2021/06/23 03:15:47;;;;;;;1.00;0.90;;;27.90;50.60;;;;;;5061716;28;20047;-61
2021/06/23 03:18:12;;;;;;;0.63;0.60;;;27.90;50.10;;;;;;5045085;28;20120;-55
2021/06/23 03:20:38;;;;;;;0.70;0.68;;;27.90;50.10;;;;;;5058422;28;20068;-60
2021/06/23 03:23:04;;;;;;;0.85;0.70;;;27.80;50.50;;;;;;5054155;28;20067;-58
2021/06/23 03:25:30;;;;;;;0.70;0.70;;;27.80;50.00;;;;;;5056649;28;20051;-58
2021/06/23 03:27:57;;;;;;;0.70;0.70;;;27.80;50.00;;;;;;5053434;28;20455;-59
2021/06/23 03:30:25;;;;;;;0.88;0.70;;;27.80;50.10;;;;;;5057692;28;20048;-57
2021/06/23 03:32:51;;;;;;;0.60;0.60;;;27.90;50.10;;;;;;5045468;28;20163;-59
2021/06/23 03:35:20;;;;;;;0.75;0.70;;;27.80;50.10;;;;;;5065320;28;20067;-60
2021/06/23 03:37:46;;;;;;;0.80;0.80;;;27.80;50.10;;;;;;5053224;28;20399;-57
2021/06/23 03:40:12;;;;;;;0.75;0.63;;;27.80;50.10;;;;;;5050690;28;20075;-59
2021/06/23 03:42:38;;;;;;;0.70;0.70;;;27.80;50.10;;;;;;5049076;28;20029;-62
2021/06/23 03:45:05;;;;;;;0.82;0.80;;;27.80;50.10;;;;;;5049284;28;20348;-60
2021/06/23 03:47:31;;;;;;;0.80;0.70;;;27.80;50.10;;;;;;5055787;28;20040;-57
2021/06/23 03:49:56;;;;;;;0.82;0.82;;;27.80;50.10;;;;;;5054072;28;20032;-56
2021/06/23 03:52:22;;;;;;;0.70;0.70;;;27.80;50.10;;;;;;5055762;28;20032;-59
2021/06/23 03:54:47;;;;;;;1.23;0.80;;;27.80;50.10;;;;;;5056937;28;20060;-59
2021/06/23 03:57:13;;;;;;;0.75;0.75;;;27.80;50.10;;;;;;5057248;28;20148;-59
2021/06/23 03:59:39;;;;;;;0.90;0.80;;;27.80;50.20;;;;;;5058080;28;20037;-58
2021/06/23 04:02:04;;;;;;;0.60;0.60;;;27.80;50.10;;;;;;5057123;28;20031;-60
2021/06/23 04:04:30;;;;;;;0.70;0.70;;;27.80;50.20;;;;;;5055097;28;20043;-60
2021/06/23 04:06:56;;;;;;;0.80;0.80;;;27.80;50.20;;;;;;5063193;28;20036;-61
2021/06/23 04:09:21;;;;;;;0.70;0.70;;;27.70;50.10;;;;;;5057421;28;20029;-58
2021/06/23 04:11:47;;;;;;;0.80;0.68;;;27.80;50.20;;;;;;5047036;28;20029;-58
2021/06/23 04:14:13;;;;;;;0.98;0.70;;;27.80;50.20;;;;;;5060648;28;20021;-58
2021/06/23 04:16:38;;;;;;;1.30;0.80;;;27.80;50.10;;;;;;5051094;28;20395;-59
2021/06/23 04:19:04;;;;;;;1.00;0.80;;;27.80;50.20;;;;;;5073050;28;20040;-57
2021/06/23 04:21:30;;;;;;;0.70;0.70;;;27.80;50.20;;;;;;5077324;28;20353;-56
2021/06/23 04:23:55;;;;;;;1.42;0.60;;;27.70;50.10;;;;;;5054257;28;20032;-59
2021/06/23 04:26:21;;;;;;;0.70;0.70;;;27.80;50.20;;;;;;5055107;28;20024;-60
2021/06/23 04:28:46;;;;;;;0.93;0.80;;;27.80;50.20;;;;;;5057681;28;20040;-60
2021/06/23 04:31:12;;;;;;;0.77;0.70;;;27.70;50.10;;;;;;5057975;28;20039;-58
2021/06/23 04:33:38;;;;;;;0.75;0.75;;;27.70;50.10;;;;;;5048955;28;20371;-60
2021/06/23 04:36:04;;;;;;;0.60;0.60;;;27.70;50.10;;;;;;5044188;28;20036;-59
2021/06/23 04:38:29;;;;;;;0.60;0.60;;;27.70;50.10;;;;;;5048043;28;20036;-57
2021/06/23 04:40:55;;;;;;;0.95;0.70;;;27.70;50.10;;;;;;5057436;28;20601;-59
2021/06/23 04:43:21;;;;;;;0.90;0.70;;;27.70;50.10;;;;;;5051126;28;20121;-58
2021/06/23 04:45:46;;;;;;;0.95;0.80;;;27.70;50.10;;;;;;5053383;28;20328;-58
2021/06/23 04:48:12;;;;;;;0.82;0.70;;;27.70;50.20;;;;;;5055273;28;20029;-58
2021/06/23 04:50:38;;;;;;;1.00;0.70;;;27.70;50.10;;;;;;5062139;28;20056;-60
2021/06/23 04:53:03;;;;;;;0.60;0.60;;;27.70;50.20;;;;;;5058057;28;20653;-57
2021/06/23 04:55:29;;;;;;;0.88;0.63;;;27.70;50.20;;;;;;5052269;28;20403;-60
2021/06/23 04:57:55;;;;;;;0.80;0.80;;;27.70;50.20;;;;;;5050608;28;20138;-60
2021/06/23 05:00:21;;;;;;;1.02;0.70;;;27.70;50.20;;;;;;5054596;28;20047;-59
2021/06/23 05:02:46;;;;;;;0.98;0.70;;;27.70;50.20;;;;;;5049164;28;20389;-61
2021/06/23 05:05:12;;;;;;;0.93;0.82;;;27.70;50.20;;;;;;5052754;28;20025;-62
2021/06/23 05:07:38;;;;;;;0.60;0.60;;;27.70;50.20;;;;;;5058857;28;20032;-62
2021/06/23 05:10:04;;;;;;;0.75;0.70;;;27.60;50.10;;;;;;5050138;28;20056;-58
2021/06/23 05:12:30;;;;;;;1.45;0.70;;;27.70;50.20;;;;;;5051373;28;20113;-59
2021/06/23 05:14:57;;;;;;;0.93;0.70;;;27.70;50.10;;;;;;5056406;28;20125;-58
2021/06/23 05:17:24;;;;;;;0.80;0.70;;;27.70;50.10;;;;;;5057165;28;20074;-60
2021/06/23 05:19:49;;;;;;;0.60;0.60;;;27.70;50.10;;;;;;5079691;28;20036;-57
2021/06/23 05:22:15;;;;;;;0.65;0.60;;;27.60;50.10;;;;;;5054332;28;20459;-59
2021/06/23 05:24:42;;;;;;;0.70;0.70;;;27.60;50.00;;;;;;5056757;28;20189;-57
2021/06/23 05:27:09;;;;;;;0.70;0.70;;;27.60;50.00;;;;;;5058317;28;20028;-56
2021/06/23 05:29:35;;;;;;;0.77;0.70;;;27.60;50.00;;;;;;5048651;28;20089;-60
2021/06/23 05:32:01;;;;;;;0.90;0.73;;;27.60;50.00;;;;;;5054817;28;20036;-59
2021/06/23 05:34:28;;;;;;;0.73;0.68;;;27.60;50.60;;;;;;5054894;28;20040;-60
2021/06/23 05:36:58;;;;;;;0.80;0.80;;;27.60;50.00;;;;;;5051597;28;20086;-60
2021/06/23 05:39:23;;;;;;;;;;;27.60;50.00;;;;;;5053635;28;20120;-62
2021/06/23 05:41:49;;;;;;;0.73;0.70;;;27.60;50.00;;;;;;5053084;28;20378;-58
2021/06/23 05:44:15;;;;;;;0.68;0.60;;;27.60;50.00;;;;;;5056841;28;20028;-60
2021/06/23 05:46:40;;;;;;;0.68;0.68;;;27.60;50.00;;;;;;5047472;28;20035;-57
2021/06/23 05:49:06;;;;;;;1.42;0.70;;;27.60;50.00;;;;;;5062951;28;20028;-60
2021/06/23 05:51:32;;;;;;;0.90;0.80;;;27.60;50.00;;;;;;5047602;28;20536;-60
2021/06/23 05:53:58;;;;;;;0.65;0.60;;;27.60;50.10;;;;;;5045998;28;20511;-58
2021/06/23 05:56:23;;;;;;;0.63;0.63;;;27.60;50.20;;;;;;5062306;28;20024;-54
2021/06/23 05:58:49;;;;;;;0.77;0.68;;;27.60;50.20;;;;;;5058694;28;20029;-56
2021/06/23 06:01:14;;;;;;;0.85;0.70;;;27.70;50.20;;;;;;5050417;28;20047;-52
2021/06/23 06:03:40;;;;;;;0.50;0.50;;;27.70;50.10;;;;;;5053540;28;20095;-58
2021/06/23 06:06:06;;;;;;;0.60;0.60;;;27.70;50.10;;;;;;5056491;28;20032;-56
2021/06/23 06:08:31;;;;;;;0.70;0.70;;;27.70;50.00;;;;;;5066186;28;20443;-60
2021/06/23 06:10:57;;;;;;;0.60;0.60;;;27.80;50.00;;;;;;5049519;28;20040;-56
2021/06/23 06:13:23;;;;;;;0.70;0.70;;;27.70;49.90;;;;;;5052975;28;20024;-56
2021/06/23 06:15:49;;;;;;;0.52;0.50;;;27.80;49.90;;;;;;5057738;28;20439;-55
2021/06/23 06:18:15;;;;;;;0.70;0.70;;;27.80;49.90;;;;;;5063125;28;20039;-57
2021/06/23 06:20:40;;;;;;;0.70;0.65;;;27.80;49.90;;;;;;5077572;28;20028;-55
2021/06/23 06:23:06;;;;;;;1.05;0.70;;;27.80;49.80;;;;;;5055049;28;20391;-61
2021/06/23 06:25:33;;;;;;;0.68;0.60;;;27.90;49.80;;;;;;5046975;28;20052;-54
2021/06/23 06:27:59;;;;;;;0.75;0.70;;;27.90;49.80;;;;;;5065121;28;20131;-57
2021/06/23 06:30:25;;;;;;;0.82;0.60;;;27.90;49.70;;;;;;5053398;28;20852;-57
2021/06/23 06:32:51;;;;;;;0.73;0.52;;;27.90;49.70;;;;;;5055327;28;20039;-55
2021/06/23 06:35:17;;;;;;;0.70;0.63;;;28.00;49.70;;;;;;5058749;28;20112;-57
2021/06/23 06:37:43;;;;;;;0.82;0.60;;;28.00;49.90;;;;;;5062836;28;20104;-58
2021/06/23 06:40:09;;;;;;;1.48;0.88;;;28.00;49.50;;;;;;5050048;28;20024;-58
2021/06/23 06:42:34;;;;;;;2.10;0.80;;;28.00;49.30;;;;;;5066143;28;20020;-58
2021/06/23 06:45:00;;;;;;;0.95;0.75;;;27.90;49.00;;;;;;5059345;28;21345;-57
2021/06/23 06:47:26;;;;;;;2.45;0.95;;;27.90;49.10;;;;;;5049510;28;20102;-55
2021/06/23 06:49:52;;;;;;;0.80;0.70;;;27.90;49.00;;;;;;5057425;28;20551;-57
2021/06/23 06:52:17;;;;;;;1.23;0.85;;;27.90;48.90;;;;;;5046338;28;20116;-62
2021/06/23 06:54:43;;;;;;;1.25;0.77;;;27.90;48.80;;;;;;5059667;28;20035;-56
2021/06/23 06:57:09;;;;;;;1.65;0.90;;;27.90;48.70;;;;;;5066693;28;20055;-57
2021/06/23 06:59:35;;;;;;;0.80;0.70;;;27.90;48.60;;;;;;5053123;28;20029;-54
2021/06/23 07:02:00;;;;;;;1.20;0.80;;;27.90;48.80;;;;;;5058999;28;20060;-56
2021/06/23 07:04:27;;;;;;;1.42;0.73;;;27.80;48.60;;;;;;5062738;28;20521;-58
2021/06/23 07:06:53;;;;;;;2.13;0.70;;;27.80;48.70;;;;;;5062505;28;20056;-56
2021/06/23 07:09:19;;;;;;;1.27;0.73;;;27.80;49.20;;;;;;5069312;28;20037;-58
2021/06/23 07:11:47;;;;;;;1.50;0.75;;;27.90;48.70;;;;;;5054441;28;20044;-54
2021/06/23 07:14:12;;;;;;;1.27;0.80;;;27.90;48.70;;;;;;5058404;28;20419;-59
2021/06/23 07:16:38;;;;;;;1.42;0.80;;;27.90;48.60;;;;;;5062379;28;20032;-51
2021/06/23 07:19:03;;;;;;;1.23;0.77;;;27.90;48.60;;;;;;5070960;28;20032;-53
2021/06/23 07:21:29;;;;;;;2.03;0.80;;;27.90;48.60;;;;;;5062187;28;20399;-49
2021/06/23 07:23:57;;;;;;;1.77;0.95;;;28.00;48.70;;;;;;5056400;28;20024;-55
2021/06/23 07:26:24;;;;;;;1.67;0.90;;;28.00;48.70;;;;;;5060264;28;20025;-53
2021/06/23 07:28:52;;;;;;;2.53;0.90;;;28.00;49.00;;;;;;5062886;28;20035;-54
2021/06/23 07:31:43;;;;;;;1.08;0.70;;;28.00;48.70;;;;;;5066284;28;20076;-56
2021/06/23 07:36:52;;;;;;;1.35;0.70;;;28.00;48.60;;;;;;5050379;28;20029;-51
2021/06/23 07:39:19;;;;;;;1.15;0.80;;;28.00;48.70;;;;;;5056389;28;20029;-54
2021/06/23 07:41:50;;;;;;;0.73;0.65;;;28.00;48.70;;;;;;5058545;28;20688;-51
2021/06/23 07:44:20;;;;;;;1.75;0.93;;;28.00;48.80;;;;;;5058422;28;20094;-54
2021/06/23 07:46:52;;;;;;;1.65;0.70;;;28.00;48.80;;;;;;5062275;28;20072;-53
2021/06/23 07:49:19;;;;;;;0.95;0.80;;;28.00;48.90;;;;;;5062437;28;20025;-50
2021/06/23 07:54:22;;;;;;;1.00;0.80;;;28.00;48.90;;;;;;5057070;28;20459;-51
2021/06/23 08:10:31;;;;;;;1.08;0.93;;;28.00;49.20;;;;;;5048589;28;20044;-51
2021/06/23 08:12:58;;;;;;;1.27;1.00;;;28.00;49.20;;;;;;5055020;28;20025;-50
2021/06/23 08:15:29;;;;;;;1.33;0.82;;;28.00;49.30;;;;;;5052675;28;20029;-48
2021/06/23 08:17:56;;;;;;;0.98;0.80;;;28.00;49.30;;;;;;5059285;28;20020;-52
2021/06/23 08:20:22;;;;;;;1.60;1.00;;;28.00;49.20;;;;;;5083193;28;20035;-55
2021/06/23 08:22:48;;;;;;;1.95;1.00;;;28.00;49.10;;;;;;5053296;28;20028;-54
2021/06/23 08:25:14;;;;;;;1.40;0.98;;;28.00;49.10;;;;;;5065749;28;20037;-52
2021/06/23 08:27:40;;;;;;;1.83;1.00;;;28.00;49.00;;;;;;5055990;28;20371;-50
2021/06/23 08:30:07;;;;;;;1.25;0.90;;;28.00;49.30;;;;;;5064603;28;20024;-56
2021/06/23 08:32:33;;;;;;;0.90;0.80;;;28.00;49.00;;;;;;5063143;28;20025;-52
2021/06/23 08:34:58;;;;;;;1.27;0.90;;;28.00;49.00;;;;;;5048952;28;20381;-55
2021/06/23 08:37:24;;;;;;;1.48;0.90;;;28.00;49.00;;;;;;5059205;28;20112;-53
2021/06/23 08:39:50;;;;;;;1.80;0.90;;;28.00;49.50;;;;;;5057275;28;20054;-53
2021/06/23 08:42:15;;;;;;;0.95;0.88;;;28.00;49.00;;;;;;5058650;28;20067;-54
2021/06/23 08:44:41;;;;;;;1.10;1.00;;;28.00;49.00;;;;;;5057336;28;20111;-57
2021/06/23 08:47:07;;;;;;;1.42;1.00;;;28.00;49.00;;;;;;5047887;28;20041;-53
2021/06/23 08:49:33;;;;;;;1.38;1.00;;;28.00;49.00;;;;;;5057593;28;20144;-57
2021/06/23 08:52:00;;;;;;;1.65;1.33;;;28.00;49.30;;;;;;5054251;28;20497;-54
2021/06/23 08:54:27;;;;;;;1.45;0.98;;;28.00;49.10;;;;;;5053606;28;20074;-54
2021/06/23 08:56:54;;;;;;;2.30;1.02;;;28.00;49.10;;;;;;5054553;28;20024;-56
2021/06/23 08:59:19;;;;;;;1.25;0.90;;;28.00;49.20;;;;;;5057897;28;20098;-54
2021/06/23 09:01:45;;;;;;;1.27;0.95;;;28.00;49.20;;;;;;5064146;28;20053;-57
2021/06/23 09:04:14;;;;;;;1.55;1.00;;;28.00;49.20;;;;;;5057301;28;20039;-53
2021/06/23 09:06:57;;;;;;;1.50;1.10;;;28.00;49.30;;;;;;5055351;28;20036;-50
2021/06/23 09:09:24;;;;;;;2.08;1.08;;;28.00;49.20;;;;;;5064084;28;20090;-54
2021/06/23 09:12:01;;;;;;;1.02;0.93;;;28.00;49.20;;;;;;5047076;28;20108;-55
2021/06/23 09:14:29;;;;;;;1.10;0.90;;;28.10;49.20;;;;;;5054369;28;20017;-58
2021/06/23 09:17:06;;;;;;;1.15;0.90;;;28.10;49.20;;;;;;5063807;28;20166;-54
2021/06/23 09:19:40;;;;;;;1.25;1.00;;;28.10;49.10;;;;;;5065377;28;20020;-52
2021/06/23 09:22:36;;;;;;;1.05;0.90;;;28.10;49.10;;;;;;5059903;28;20116;-56
2021/06/23 09:25:23;;;;;;;1.30;1.00;;;28.10;49.20;;;;;;5054026;28;20036;-51
2021/06/23 09:27:57;;;;;;;1.58;1.10;;;28.10;49.70;;;;;;5049447;28;20032;-53
2021/06/23 09:30:24;;;;;;;1.88;0.90;;;28.20;49.50;;;;;;5046847;28;20461;-54
2021/06/23 09:33:18;;;;;;;1.50;1.00;;;28.20;49.50;;;;;;5046977;28;20086;-55
2021/06/23 09:36:00;;;;;;;1.20;0.90;;;28.20;49.30;;;;;;5065390;28;20141;-50
2021/06/23 09:38:50;;;;;;;1.70;1.00;;;28.30;49.40;;;;;;5063849;28;20024;-52
2021/06/23 09:41:21;;;;;;;2.10;1.00;;;28.30;49.30;;;;;;5049573;28;20032;-55
2021/06/23 09:43:53;;;;;;;1.13;1.00;;;28.30;49.20;;;;;;5050933;28;20068;-60
2021/06/23 09:46:31;;;;;;;1.27;1.00;;;28.30;49.40;;;;;;5056626;28;20511;-50
2021/06/23 09:49:08;;;;;;;1.00;0.90;;;28.40;49.40;;;;;;5056974;28;20041;-55
2021/06/23 09:51:48;;;;;;;1.63;1.15;;;28.40;49.30;;;;;;5059164;28;20378;-54
2021/06/23 09:54:16;;;;;;;2.72;1.30;;;28.40;49.40;;;;;;5050440;28;20082;-53
2021/06/23 09:56:46;;;;;;;2.08;1.23;;;28.40;49.00;;;;;;5057593;28;20025;-52
2021/06/23 09:59:34;;;;;;;3.85;1.80;;;28.40;49.00;;;;;;5059505;28;20024;-52
2021/06/23 10:02:00;;;;;;;2.45;1.38;;;28.40;49.00;;;;;;5061243;28;20101;-54
2021/06/23 10:04:33;;;;;;;3.53;1.50;;;28.40;48.90;;;;;;5058640;28;20160;-58
2021/06/23 10:06:59;;;;;;;2.35;1.10;;;28.40;49.10;;;;;;5062236;28;20451;-56
2021/06/23 10:09:29;;;;;;;3.55;1.33;;;28.50;49.10;;;;;;5058627;28;20064;-54
2021/06/23 10:12:01;;;;;;;3.38;1.50;;;28.50;48.80;;;;;;5055734;28;20804;-54
2021/06/23 10:14:30;;;;;;;2.85;1.45;;;28.50;48.70;;;;;;5046191;28;20120;-55
2021/06/23 10:17:00;;;;;;;2.80;1.40;;;28.50;48.80;;;;;;5048261;28;20098;-56
2021/06/23 10:19:27;;;;;;;3.67;1.40;;;28.50;48.70;;;;;;5052315;28;20171;-58
2021/06/23 10:21:55;;;;;;;2.20;1.30;;;28.50;48.80;;;;;;5051913;28;20037;-52
2021/06/23 10:24:21;;;;;;;1.95;1.20;;;28.50;48.80;;;;;;5046738;28;20075;-57
2021/06/23 10:26:53;;;;;;;2.85;1.13;;;28.60;48.80;;;;;;5051757;28;20071;-55
2021/06/23 10:29:25;;;;;;;2.15;1.20;;;28.60;48.80;;;;;;5043995;28;20055;-52
2021/06/23 10:31:51;;;;;;;1.52;1.10;;;28.60;48.80;;;;;;5052730;28;20036;-54
2021/06/23 10:34:18;;;;;;;1.70;1.08;;;28.60;48.80;;;;;;5051106;28;20302;-55
2021/06/23 10:36:45;;;;;;;1.30;1.10;;;28.60;48.70;;;;;;5057750;28;20025;-55
2021/06/23 10:39:12;;;;;;;2.00;1.25;;;28.60;48.30;;;;;;5064713;28;20096;-50
2021/06/23 10:41:40;;;;;;;2.50;1.13;;;28.60;48.20;;;;;;5057479;28;20056;-57
2021/06/23 10:44:20;;;;;;;1.63;1.23;;;28.60;48.20;;;;;;5052617;28;20055;-54
2021/06/23 10:46:51;;;;;;;1.85;1.10;;;28.60;48.10;;;;;;5058801;28;20039;-55
2021/06/23 10:49:47;;;;;;;1.38;1.10;;;28.60;48.20;;;;;;5059349;28;20025;-57
2021/06/23 10:52:25;;;;;;;2.35;1.20;;;28.60;48.10;;;;;;5058774;28;20032;-57
2021/06/23 10:54:52;;;;;;;1.73;1.20;;;28.60;48.20;;;;;;5057960;28;20028;-55
2021/06/23 10:57:30;;;;;;;1.75;1.00;;;28.60;48.20;;;;;;5057638;28;20025;-53
2021/06/23 11:00:01;;;;;;;1.70;1.05;;;28.60;48.20;;;;;;5055651;28;20056;-56
2021/06/23 11:02:37;;;;;;;2.35;1.08;;;28.60;48.20;;;;;;5056985;28;20044;-55
2021/06/23 11:05:05;;;;;;;2.00;1.23;;;28.60;48.20;;;;;;5055346;28;20029;-58
2021/06/23 11:07:33;;;;;;;1.63;1.10;;;28.60;48.20;;;;;;5063925;28;20104;-57
2021/06/23 11:10:14;;;;;;;1.52;1.02;;;28.60;48.30;;;;;;5062799;28;20044;-53
2021/06/23 11:12:46;;;;;;;2.97;1.10;;;28.60;48.40;;;;;;5054286;28;20029;-59
2021/06/23 11:15:15;;;;;;;1.60;0.90;;;28.60;48.40;;;;;;5048774;28;20021;-60
2021/06/23 11:17:46;;;;;;;1.63;1.10;;;28.60;48.70;;;;;;5055113;28;20540;-57
2021/06/23 11:20:20;;;;;;;1.58;1.00;;;28.60;48.70;;;;;;5057766;28;20090;-57
2021/06/23 11:22:54;;;;;;;1.55;1.00;;;28.60;48.80;;;;;;5058173;28;20113;-55
2021/06/23 11:25:23;;;;;;;1.73;1.10;;;28.70;48.80;;;;;;5058682;28;20032;-55
2021/06/23 11:28:12;;;;;;;2.47;1.02;;;28.70;48.40;;;;;;5060574;28;20033;-58
2021/06/23 11:31:07;;;;;;;2.22;1.00;;;28.70;48.70;;;;;;5058960;28;20087;-59
2021/06/23 11:33:38;;;;;;;1.30;0.90;;;28.80;48.90;;;;;;5059969;28;20029;-54
2021/06/23 11:36:05;;;;;;;1.33;0.90;;;28.80;48.80;;;;;;5052478;28;20647;-55
2021/06/23 11:38:31;;;;;;;1.05;0.90;;;28.80;48.90;;;;;;5050839;28;20025;-54
2021/06/23 11:40:57;;;;;;;1.60;0.95;;;28.80;48.80;;;;;;5052321;28;20033;-53
2021/06/23 11:43:24;;;;;;;1.45;0.95;;;28.80;48.50;;;;;;5048826;28;20450;-55
2021/06/23 11:45:49;;;;;;;1.30;0.90;;;28.90;48.60;;;;;;5050110;28;20021;-53
2021/06/23 11:48:16;;;;;;;1.30;1.00;;;28.90;48.60;;;;;;5059754;28;20130;-52
2021/06/23 11:50:43;;;;;;;2.13;1.00;;;28.80;48.60;;;;;;5059359;28;20029;-55
2021/06/23 11:53:11;;;;;;;0.80;0.80;;;28.90;48.60;;;;;;5060747;28;20064;-55
2021/06/23 11:55:37;;;;;;;1.60;0.90;;;28.90;48.60;;;;;;5055485;28;20024;-57
2021/06/23 11:58:04;;;;;;;1.70;1.02;;;28.90;48.50;;;;;;5054333;28;20032;-52
2021/06/23 12:00:31;;;;;;;1.20;0.90;;;28.90;48.40;;;;;;5048660;28;20481;-53
2021/06/23 12:02:59;;;;;;;1.38;0.95;;;29.00;48.80;;;;;;5066710;28;20044;-59
2021/06/23 12:05:25;;;;;;;1.20;0.95;;;29.00;48.30;;;;;;5059208;28;20025;-51
2021/06/23 12:07:52;;;;;;;1.20;0.90;;;29.00;48.50;;;;;;5056651;28;20055;-53
2021/06/23 12:10:19;;;;;;;1.05;0.80;;;29.00;48.40;;;;;;5056443;28;20107;-55
2021/06/23 12:12:45;;;;;;;1.15;0.80;;;29.00;48.30;;;;;;5059679;28;20021;-55
2021/06/23 12:15:11;;;;;;;1.52;0.82;;;29.10;48.50;;;;;;5060530;28;20051;-55
2021/06/23 12:17:37;;;;;;;1.17;0.90;;;29.00;48.40;;;;;;5055379;28;20029;-55
2021/06/23 12:20:08;;;;;;;1.08;0.90;;;29.00;48.50;;;;;;5058569;28;20056;-58
2021/06/23 12:22:34;;;;;;;1.52;0.80;;;29.10;48.40;;;;;;5061524;28;20116;-56
2021/06/23 12:25:01;;;;;;;1.55;1.00;;;29.10;48.30;;;;;;5057119;28;20186;-56
2021/06/23 12:27:27;;;;;;;1.35;0.73;;;29.10;48.30;;;;;;5061426;28;20043;-58
2021/06/23 12:29:53;;;;;;;0.88;0.70;;;29.10;48.40;;;;;;5053350;28;20056;-58
2021/06/23 12:32:18;;;;;;;1.98;0.90;;;29.20;48.50;;;;;;5035719;28;20065;-58
2021/06/23 12:34:44;;;;;;;2.15;0.80;;;29.20;48.40;;;;;;5051667;28;20029;-58
2021/06/23 12:37:09;;;;;;;0.82;0.80;;;29.20;48.20;;;;;;5051804;28;20100;-55
2021/06/23 12:39:35;;;;;;;1.35;0.80;;;29.20;48.20;;;;;;5055606;28;20028;-57
2021/06/23 12:42:01;;;;;;;1.05;0.80;;;29.30;48.30;;;;;;5059033;28;20036;-57
2021/06/23 12:44:26;;;;;;;1.02;0.80;;;29.30;48.30;;;;;;5053887;28;20032;-52
2021/06/23 12:46:52;;;;;;;1.20;0.80;;;29.30;48.30;;;;;;5049667;28;20503;-57
2021/06/23 12:49:18;;;;;;;0.70;0.70;;;29.30;48.10;;;;;;5062685;28;20120;-55
2021/06/23 12:51:45;;;;;;;0.80;0.70;;;29.30;48.00;;;;;;5056784;28;20029;-55
2021/06/23 12:54:10;;;;;;;1.15;0.80;;;29.30;48.10;;;;;;5059024;28;20087;-58
2021/06/23 12:56:37;;;;;;;2.35;0.80;;;29.30;48.10;;;;;;5059196;28;20029;-58
2021/06/23 12:59:03;;;;;;;0.95;0.80;;;29.30;47.70;;;;;;5051911;28;20535;-58
2021/06/23 13:01:29;;;;;;;1.23;0.80;;;29.30;47.40;;;;;;5060561;28;20032;-53
2021/06/23 13:03:55;;;;;;;0.77;0.75;;;29.30;47.30;;;;;;5060699;28;20082;-57
2021/06/23 13:06:20;;;;;;;1.30;0.88;;;29.30;47.70;;;;;;5054860;28;20451;-55
2021/06/23 13:08:47;;;;;;;1.23;0.70;;;29.30;47.70;;;;;;5052145;28;20029;-58
2021/06/23 13:11:13;;;;;;;0.70;0.70;;;29.30;47.80;;;;;;5051632;28;20083;-55